sensor_id;sensor_type;location;lat;lon;timestamp;P1;durP1;ratioP1;P2;durP2;ratioP2
66593;SDS011;53450;42.584;23.366;2023-08-06T00:01:52;12.25;;;4.78;;
66593;SDS011;53450;42.584;23.366;2023-08-06T00:04:17;13.13;;;5.22;;
66593;SDS011;53450;42.584;23.366;2023-08-06T00:06:43;13.25;;;5.28;;
66593;SDS011;53450;42.584;23.366;2023-08-06T00:09:08;7.18;;;4.95;;
66593;SDS011;53450;42.584;23.366;2023-08-06T00:11:34;11.15;;;4.75;;
66593;SDS011;53450;42.584;23.366;2023-08-06T00:13:59;7.70;;;4.80;;
66593;SDS011;53450;42.584;23.366;2023-08-06T00:16:25;10.48;;;4.88;;
66593;SDS011;53450;42.584;23.366;2023-08-06T00:18:50;6.93;;;4.88;;
66593;SDS011;53450;42.584;23.366;2023-08-06T00:21:16;8.07;;;4.53;;
66593;SDS011;53450;42.584;23.366;2023-08-06T00:23:42;6.72;;;4.85;;
66593;SDS011;53450;42.584;23.366;2023-08-06T00:26:07;7.22;;;4.07;;
66593;SDS011;53450;42.584;23.366;2023-08-06T00:28:33;10.20;;;5.03;;
66593;SDS011;53450;42.584;23.366;2023-08-06T00:30:59;5.80;;;4.10;;
66593;SDS011;53450;42.584;23.366;2023-08-06T00:33:24;11.82;;;4.95;;
66593;SDS011;53450;42.584;23.366;2023-08-06T00:35:50;11.38;;;4.32;;
66593;SDS011;53450;42.584;23.366;2023-08-06T00:38:16;6.93;;;4.43;;
66593;SDS011;53450;42.584;23.366;2023-08-06T00:40:42;5.25;;;4.47;;
66593;SDS011;53450;42.584;23.366;2023-08-06T00:43:32;9.70;;;5.22;;
66593;SDS011;53450;42.584;23.366;2023-08-06T00:45:58;5.47;;;4.70;;
66593;SDS011;53450;42.584;23.366;2023-08-06T00:48:24;12.15;;;5.13;;
66593;SDS011;53450;42.584;23.366;2023-08-06T00:50:50;6.18;;;4.40;;
66593;SDS011;53450;42.584;23.366;2023-08-06T00:53:16;10.15;;;4.65;;
66593;SDS011;53450;42.584;23.366;2023-08-06T00:55:43;9.25;;;4.72;;
66593;SDS011;53450;42.584;23.366;2023-08-06T00:58:10;5.68;;;4.60;;
66593;SDS011;53450;42.584;23.366;2023-08-06T01:01:01;6.30;;;4.50;;
66593;SDS011;53450;42.584;23.366;2023-08-06T01:03:27;8.38;;;5.47;;
66593;SDS011;53450;42.584;23.366;2023-08-06T01:05:53;9.90;;;4.97;;
66593;SDS011;53450;42.584;23.366;2023-08-06T01:08:28;5.28;;;4.53;;
66593;SDS011;53450;42.584;23.366;2023-08-06T01:11:14;12.65;;;5.10;;
66593;SDS011;53450;42.584;23.366;2023-08-06T01:13:54;5.25;;;4.60;;
66593;SDS011;53450;42.584;23.366;2023-08-06T01:16:26;5.38;;;4.80;;
66593;SDS011;53450;42.584;23.366;2023-08-06T01:18:52;10.20;;;4.32;;
66593;SDS011;53450;42.584;23.366;2023-08-06T01:21:18;6.90;;;4.85;;
66593;SDS011;53450;42.584;23.366;2023-08-06T01:23:44;8.55;;;4.88;;
66593;SDS011;53450;42.584;23.366;2023-08-06T01:26:33;5.30;;;4.80;;
66593;SDS011;53450;42.584;23.366;2023-08-06T01:29:24;5.22;;;4.50;;
66593;SDS011;53450;42.584;23.366;2023-08-06T01:34:21;7.93;;;6.15;;
66593;SDS011;53450;42.584;23.366;2023-08-06T01:36:50;8.85;;;5.68;;
66593;SDS011;53450;42.584;23.366;2023-08-06T01:39:16;6.78;;;5.35;;
66593;SDS011;53450;42.584;23.366;2023-08-06T01:41:42;6.75;;;5.32;;
66593;SDS011;53450;42.584;23.366;2023-08-06T01:44:08;7.45;;;5.80;;
66593;SDS011;53450;42.584;23.366;2023-08-06T01:46:33;8.18;;;6.00;;
66593;SDS011;53450;42.584;23.366;2023-08-06T01:48:59;11.93;;;5.50;;
66593;SDS011;53450;42.584;23.366;2023-08-06T01:51:25;9.80;;;6.25;;
66593;SDS011;53450;42.584;23.366;2023-08-06T01:53:50;21.85;;;7.32;;
66593;SDS011;53450;42.584;23.366;2023-08-06T01:56:17;8.48;;;6.95;;
66593;SDS011;53450;42.584;23.366;2023-08-06T01:58:43;9.07;;;6.57;;
66593;SDS011;53450;42.584;23.366;2023-08-06T02:01:08;9.00;;;7.45;;
66593;SDS011;53450;42.584;23.366;2023-08-06T02:03:34;12.07;;;7.10;;
66593;SDS011;53450;42.584;23.366;2023-08-06T02:05:59;15.27;;;7.40;;
66593;SDS011;53450;42.584;23.366;2023-08-06T02:08:25;11.25;;;6.80;;
66593;SDS011;53450;42.584;23.366;2023-08-06T02:10:52;12.80;;;7.85;;
66593;SDS011;53450;42.584;23.366;2023-08-06T02:13:18;11.13;;;6.47;;
66593;SDS011;53450;42.584;23.366;2023-08-06T02:15:45;15.43;;;7.25;;
66593;SDS011;53450;42.584;23.366;2023-08-06T02:18:14;9.52;;;6.00;;
66593;SDS011;53450;42.584;23.366;2023-08-06T02:20:40;5.85;;;5.07;;
66593;SDS011;53450;42.584;23.366;2023-08-06T02:23:06;14.30;;;5.88;;
66593;SDS011;53450;42.584;23.366;2023-08-06T02:25:32;14.80;;;7.50;;
66593;SDS011;53450;42.584;23.366;2023-08-06T02:27:58;11.07;;;5.45;;
66593;SDS011;53450;42.584;23.366;2023-08-06T02:30:24;7.32;;;5.93;;
66593;SDS011;53450;42.584;23.366;2023-08-06T02:32:50;7.75;;;5.45;;
66593;SDS011;53450;42.584;23.366;2023-08-06T02:35:41;8.13;;;5.90;;
66593;SDS011;53450;42.584;23.366;2023-08-06T02:38:32;8.80;;;6.65;;
66593;SDS011;53450;42.584;23.366;2023-08-06T02:40:58;11.80;;;6.63;;
66593;SDS011;53450;42.584;23.366;2023-08-06T02:43:23;9.25;;;6.72;;
66593;SDS011;53450;42.584;23.366;2023-08-06T02:45:50;10.07;;;5.90;;
66593;SDS011;53450;42.584;23.366;2023-08-06T02:48:15;10.73;;;6.43;;
66593;SDS011;53450;42.584;23.366;2023-08-06T02:50:43;8.30;;;5.82;;
66593;SDS011;53450;42.584;23.366;2023-08-06T02:53:09;9.65;;;5.95;;
66593;SDS011;53450;42.584;23.366;2023-08-06T02:55:36;6.10;;;5.35;;
66593;SDS011;53450;42.584;23.366;2023-08-06T02:58:06;14.05;;;6.15;;
66593;SDS011;53450;42.584;23.366;2023-08-06T03:00:36;16.92;;;6.32;;
66593;SDS011;53450;42.584;23.366;2023-08-06T03:03:03;9.55;;;5.88;;
66593;SDS011;53450;42.584;23.366;2023-08-06T03:05:51;9.98;;;5.05;;
66593;SDS011;53450;42.584;23.366;2023-08-06T03:08:21;5.43;;;4.90;;
66593;SDS011;53450;42.584;23.366;2023-08-06T03:10:49;5.18;;;4.00;;
66593;SDS011;53450;42.584;23.366;2023-08-06T03:13:17;9.93;;;4.45;;
66593;SDS011;53450;42.584;23.366;2023-08-06T03:15:43;7.28;;;4.60;;
66593;SDS011;53450;42.584;23.366;2023-08-06T03:18:16;4.32;;;3.92;;
66593;SDS011;53450;42.584;23.366;2023-08-06T03:20:42;5.90;;;4.55;;
66593;SDS011;53450;42.584;23.366;2023-08-06T03:23:07;9.10;;;4.85;;
66593;SDS011;53450;42.584;23.366;2023-08-06T03:25:35;5.47;;;4.95;;
66593;SDS011;53450;42.584;23.366;2023-08-06T03:28:01;6.50;;;5.10;;
66593;SDS011;53450;42.584;23.366;2023-08-06T03:30:26;9.82;;;4.85;;
66593;SDS011;53450;42.584;23.366;2023-08-06T03:32:53;6.97;;;4.65;;
66593;SDS011;53450;42.584;23.366;2023-08-06T03:35:20;4.57;;;4.00;;
66593;SDS011;53450;42.584;23.366;2023-08-06T03:37:46;6.05;;;4.28;;
66593;SDS011;53450;42.584;23.366;2023-08-06T03:40:12;4.93;;;3.53;;
66593;SDS011;53450;42.584;23.366;2023-08-06T03:42:37;4.68;;;4.03;;
66593;SDS011;53450;42.584;23.366;2023-08-06T03:45:03;10.13;;;3.65;;
66593;SDS011;53450;42.584;23.366;2023-08-06T03:47:31;6.47;;;4.20;;
66593;SDS011;53450;42.584;23.366;2023-08-06T03:49:56;8.55;;;4.45;;
66593;SDS011;53450;42.584;23.366;2023-08-06T03:52:22;4.93;;;4.43;;
66593;SDS011;53450;42.584;23.366;2023-08-06T03:54:48;6.43;;;3.60;;
66593;SDS011;53450;42.584;23.366;2023-08-06T03:57:13;3.20;;;2.90;;
66593;SDS011;53450;42.584;23.366;2023-08-06T03:59:39;4.47;;;2.65;;
66593;SDS011;53450;42.584;23.366;2023-08-06T04:02:05;4.20;;;2.33;;
66593;SDS011;53450;42.584;23.366;2023-08-06T04:04:30;2.90;;;2.60;;
66593;SDS011;53450;42.584;23.366;2023-08-06T04:06:56;3.75;;;2.50;;
66593;SDS011;53450;42.584;23.366;2023-08-06T04:09:21;2.75;;;2.55;;
66593;SDS011;53450;42.584;23.366;2023-08-06T04:11:47;3.42;;;2.67;;
66593;SDS011;53450;42.584;23.366;2023-08-06T04:14:12;4.68;;;2.70;;
66593;SDS011;53450;42.584;23.366;2023-08-06T04:16:38;3.85;;;3.45;;
66593;SDS011;53450;42.584;23.366;2023-08-06T04:19:04;3.03;;;2.70;;
66593;SDS011;53450;42.584;23.366;2023-08-06T04:21:29;2.92;;;2.42;;
66593;SDS011;53450;42.584;23.366;2023-08-06T04:23:55;3.78;;;2.85;;
66593;SDS011;53450;42.584;23.366;2023-08-06T04:26:22;8.13;;;2.90;;
66593;SDS011;53450;42.584;23.366;2023-08-06T04:28:47;4.22;;;2.42;;
66593;SDS011;53450;42.584;23.366;2023-08-06T04:31:14;4.90;;;3.00;;
66593;SDS011;53450;42.584;23.366;2023-08-06T04:33:42;5.72;;;3.00;;
66593;SDS011;53450;42.584;23.366;2023-08-06T04:36:11;3.30;;;3.00;;
66593;SDS011;53450;42.584;23.366;2023-08-06T04:38:37;2.97;;;2.78;;
66593;SDS011;53450;42.584;23.366;2023-08-06T04:41:03;8.55;;;3.20;;
66593;SDS011;53450;42.584;23.366;2023-08-06T04:43:29;3.47;;;3.00;;
66593;SDS011;53450;42.584;23.366;2023-08-06T04:45:55;4.57;;;3.10;;
66593;SDS011;53450;42.584;23.366;2023-08-06T04:48:21;4.68;;;3.42;;
66593;SDS011;53450;42.584;23.366;2023-08-06T04:50:48;5.20;;;3.38;;
66593;SDS011;53450;42.584;23.366;2023-08-06T04:53:15;8.00;;;3.63;;
66593;SDS011;53450;42.584;23.366;2023-08-06T04:55:41;4.20;;;3.67;;
66593;SDS011;53450;42.584;23.366;2023-08-06T04:58:07;3.70;;;3.20;;
66593;SDS011;53450;42.584;23.366;2023-08-06T05:00:34;3.30;;;3.00;;
66593;SDS011;53450;42.584;23.366;2023-08-06T05:02:59;15.40;;;4.07;;
66593;SDS011;53450;42.584;23.366;2023-08-06T05:05:51;4.28;;;3.60;;
66593;SDS011;53450;42.584;23.366;2023-08-06T05:08:16;6.20;;;3.97;;
66593;SDS011;53450;42.584;23.366;2023-08-06T05:10:43;4.88;;;4.18;;
66593;SDS011;53450;42.584;23.366;2023-08-06T05:13:09;7.10;;;3.70;;
66593;SDS011;53450;42.584;23.366;2023-08-06T05:15:34;4.20;;;3.80;;
66593;SDS011;53450;42.584;23.366;2023-08-06T05:18:00;5.68;;;3.70;;
66593;SDS011;53450;42.584;23.366;2023-08-06T05:20:26;6.32;;;4.22;;
66593;SDS011;53450;42.584;23.366;2023-08-06T05:22:51;6.60;;;4.38;;
66593;SDS011;53450;42.584;23.366;2023-08-06T05:25:17;5.72;;;4.40;;
66593;SDS011;53450;42.584;23.366;2023-08-06T05:27:42;4.47;;;4.07;;
66593;SDS011;53450;42.584;23.366;2023-08-06T05:30:08;9.35;;;4.22;;
66593;SDS011;53450;42.584;23.366;2023-08-06T05:32:35;5.70;;;4.82;;
66593;SDS011;53450;42.584;23.366;2023-08-06T05:35:01;7.65;;;4.57;;
66593;SDS011;53450;42.584;23.366;2023-08-06T05:37:26;6.25;;;4.90;;
66593;SDS011;53450;42.584;23.366;2023-08-06T05:39:52;5.50;;;5.00;;
66593;SDS011;53450;42.584;23.366;2023-08-06T05:42:18;5.57;;;4.75;;
66593;SDS011;53450;42.584;23.366;2023-08-06T05:44:43;5.25;;;4.63;;
66593;SDS011;53450;42.584;23.366;2023-08-06T05:47:09;5.47;;;4.57;;
66593;SDS011;53450;42.584;23.366;2023-08-06T05:49:34;6.00;;;4.57;;
66593;SDS011;53450;42.584;23.366;2023-08-06T05:52:00;7.55;;;5.38;;
66593;SDS011;53450;42.584;23.366;2023-08-06T05:54:25;5.93;;;5.32;;
66593;SDS011;53450;42.584;23.366;2023-08-06T05:56:51;6.07;;;5.47;;
66593;SDS011;53450;42.584;23.366;2023-08-06T05:59:16;11.15;;;6.55;;
66593;SDS011;53450;42.584;23.366;2023-08-06T06:01:42;6.70;;;6.05;;
66593;SDS011;53450;42.584;23.366;2023-08-06T06:04:08;5.85;;;5.35;;
66593;SDS011;53450;42.584;23.366;2023-08-06T06:06:33;6.90;;;5.53;;
66593;SDS011;53450;42.584;23.366;2023-08-06T06:08:59;6.32;;;5.72;;
66593;SDS011;53450;42.584;23.366;2023-08-06T06:11:24;6.63;;;5.93;;
66593;SDS011;53450;42.584;23.366;2023-08-06T06:13:50;5.88;;;5.38;;
66593;SDS011;53450;42.584;23.366;2023-08-06T06:16:17;8.32;;;5.40;;
66593;SDS011;53450;42.584;23.366;2023-08-06T06:18:43;6.40;;;5.75;;
66593;SDS011;53450;42.584;23.366;2023-08-06T06:21:33;5.90;;;5.38;;
66593;SDS011;53450;42.584;23.366;2023-08-06T06:23:58;6.10;;;5.38;;
66593;SDS011;53450;42.584;23.366;2023-08-06T06:26:24;15.75;;;6.78;;
66593;SDS011;53450;42.584;23.366;2023-08-06T06:28:50;8.27;;;7.55;;
66593;SDS011;53450;42.584;23.366;2023-08-06T06:31:15;8.10;;;7.13;;
66593;SDS011;53450;42.584;23.366;2023-08-06T06:34:06;8.60;;;7.28;;
66593;SDS011;53450;42.584;23.366;2023-08-06T06:36:32;12.13;;;9.38;;
66593;SDS011;53450;42.584;23.366;2023-08-06T06:38:57;10.00;;;8.25;;
66593;SDS011;53450;42.584;23.366;2023-08-06T06:41:23;8.60;;;7.70;;
66593;SDS011;53450;42.584;23.366;2023-08-06T06:43:49;11.52;;;8.75;;
66593;SDS011;53450;42.584;23.366;2023-08-06T06:46:14;12.27;;;8.93;;
66593;SDS011;53450;42.584;23.366;2023-08-06T06:48:40;9.93;;;8.93;;
66593;SDS011;53450;42.584;23.366;2023-08-06T06:51:05;12.70;;;10.65;;
66593;SDS011;53450;42.584;23.366;2023-08-06T06:53:31;14.65;;;12.07;;
66593;SDS011;53450;42.584;23.366;2023-08-06T06:56:01;14.45;;;11.70;;
66593;SDS011;53450;42.584;23.366;2023-08-06T07:00:53;20.40;;;14.15;;
66593;SDS011;53450;42.584;23.366;2023-08-06T07:03:22;14.20;;;12.45;;
66593;SDS011;53450;42.584;23.366;2023-08-06T07:05:47;18.05;;;11.82;;
66593;SDS011;53450;42.584;23.366;2023-08-06T07:08:14;12.13;;;10.52;;
66593;SDS011;53450;42.584;23.366;2023-08-06T07:10:43;14.15;;;9.48;;
66593;SDS011;53450;42.584;23.366;2023-08-06T07:13:09;11.55;;;8.45;;
66593;SDS011;53450;42.584;23.366;2023-08-06T07:15:35;11.95;;;7.38;;
66593;SDS011;53450;42.584;23.366;2023-08-06T07:18:25;8.30;;;7.55;;
66593;SDS011;53450;42.584;23.366;2023-08-06T07:21:16;8.30;;;6.57;;
66593;SDS011;53450;42.584;23.366;2023-08-06T07:23:42;10.27;;;7.70;;
66593;SDS011;53450;42.584;23.366;2023-08-06T07:26:07;12.52;;;7.72;;
66593;SDS011;53450;42.584;23.366;2023-08-06T07:28:59;8.00;;;6.35;;
66593;SDS011;53450;42.584;23.366;2023-08-06T07:31:50;8.23;;;7.53;;
66593;SDS011;53450;42.584;23.366;2023-08-06T07:34:41;8.25;;;7.38;;
66593;SDS011;53450;42.584;23.366;2023-08-06T07:37:32;8.15;;;7.45;;
66593;SDS011;53450;42.584;23.366;2023-08-06T07:40:22;8.32;;;7.13;;
66593;SDS011;53450;42.584;23.366;2023-08-06T07:42:52;8.20;;;7.35;;
66593;SDS011;53450;42.584;23.366;2023-08-06T07:45:18;8.13;;;7.32;;
66593;SDS011;53450;42.584;23.366;2023-08-06T07:47:44;8.70;;;6.97;;
66593;SDS011;53450;42.584;23.366;2023-08-06T07:50:09;11.45;;;7.40;;
66593;SDS011;53450;42.584;23.366;2023-08-06T07:53:00;8.37;;;7.43;;
66593;SDS011;53450;42.584;23.366;2023-08-06T07:55:51;7.00;;;6.35;;
66593;SDS011;53450;42.584;23.366;2023-08-06T07:58:18;11.38;;;7.30;;
66593;SDS011;53450;42.584;23.366;2023-08-06T08:00:45;10.18;;;6.78;;
66593;SDS011;53450;42.584;23.366;2023-08-06T08:03:11;8.25;;;6.85;;
66593;SDS011;53450;42.584;23.366;2023-08-06T08:05:38;14.95;;;7.38;;
66593;SDS011;53450;42.584;23.366;2023-08-06T08:08:04;11.32;;;7.53;;
66593;SDS011;53450;42.584;23.366;2023-08-06T08:10:30;16.65;;;7.47;;
66593;SDS011;53450;42.584;23.366;2023-08-06T08:13:22;7.30;;;6.60;;
66593;SDS011;53450;42.584;23.366;2023-08-06T08:15:56;6.35;;;5.25;;
66593;SDS011;53450;42.584;23.366;2023-08-06T08:18:22;5.63;;;4.87;;
66593;SDS011;53450;42.584;23.366;2023-08-06T08:20:47;5.00;;;4.50;;
66593;SDS011;53450;42.584;23.366;2023-08-06T08:23:13;8.68;;;5.00;;
66593;SDS011;53450;42.584;23.366;2023-08-06T08:25:38;10.15;;;5.60;;
66593;SDS011;53450;42.584;23.366;2023-08-06T08:28:04;6.20;;;5.60;;
66593;SDS011;53450;42.584;23.366;2023-08-06T08:30:30;4.43;;;3.95;;
66593;SDS011;53450;42.584;23.366;2023-08-06T08:32:55;4.78;;;3.00;;
66593;SDS011;53450;42.584;23.366;2023-08-06T08:35:21;3.15;;;2.85;;
66593;SDS011;53450;42.584;23.366;2023-08-06T08:37:46;3.45;;;3.15;;
66593;SDS011;53450;42.584;23.366;2023-08-06T08:40:13;15.20;;;3.20;;
66593;SDS011;53450;42.584;23.366;2023-08-06T08:42:39;5.68;;;3.38;;
66593;SDS011;53450;42.584;23.366;2023-08-06T08:45:06;6.47;;;3.80;;
66593;SDS011;53450;42.584;23.366;2023-08-06T08:47:42;4.97;;;4.50;;
66593;SDS011;53450;42.584;23.366;2023-08-06T08:50:09;4.55;;;3.88;;
66593;SDS011;53450;42.584;23.366;2023-08-06T08:52:36;4.65;;;4.18;;
66593;SDS011;53450;42.584;23.366;2023-08-06T08:55:04;4.50;;;4.10;;
66593;SDS011;53450;42.584;23.366;2023-08-06T08:57:31;7.15;;;4.60;;
66593;SDS011;53450;42.584;23.366;2023-08-06T08:59:57;4.13;;;3.83;;
66593;SDS011;53450;42.584;23.366;2023-08-06T09:02:22;4.30;;;3.70;;
66593;SDS011;53450;42.584;23.366;2023-08-06T09:04:50;5.32;;;3.30;;
66593;SDS011;53450;42.584;23.366;2023-08-06T09:07:18;5.22;;;3.22;;
66593;SDS011;53450;42.584;23.366;2023-08-06T09:09:45;5.00;;;3.47;;
66593;SDS011;53450;42.584;23.366;2023-08-06T09:12:39;10.07;;;3.83;;
66593;SDS011;53450;42.584;23.366;2023-08-06T09:15:06;3.22;;;2.92;;
66593;SDS011;53450;42.584;23.366;2023-08-06T09:17:32;3.97;;;2.83;;
66593;SDS011;53450;42.584;23.366;2023-08-06T09:19:58;3.72;;;3.20;;
66593;SDS011;53450;42.584;23.366;2023-08-06T09:22:24;5.93;;;3.45;;
66593;SDS011;53450;42.584;23.366;2023-08-06T09:24:50;3.20;;;2.90;;
66593;SDS011;53450;42.584;23.366;2023-08-06T09:27:15;3.75;;;2.72;;
66593;SDS011;53450;42.584;23.366;2023-08-06T09:29:45;6.82;;;3.13;;
66593;SDS011;53450;42.584;23.366;2023-08-06T09:32:13;3.35;;;3.05;;
66593;SDS011;53450;42.584;23.366;2023-08-06T09:34:42;4.90;;;2.63;;
66593;SDS011;53450;42.584;23.366;2023-08-06T09:37:09;3.13;;;2.90;;
66593;SDS011;53450;42.584;23.366;2023-08-06T09:39:36;3.75;;;2.40;;
66593;SDS011;53450;42.584;23.366;2023-08-06T09:42:03;2.72;;;2.47;;
66593;SDS011;53450;42.584;23.366;2023-08-06T09:44:30;3.53;;;3.00;;
66593;SDS011;53450;42.584;23.366;2023-08-06T09:46:58;2.97;;;2.53;;
66593;SDS011;53450;42.584;23.366;2023-08-06T09:49:28;6.05;;;2.00;;
66593;SDS011;53450;42.584;23.366;2023-08-06T09:52:09;2.78;;;2.45;;
66593;SDS011;53450;42.584;23.366;2023-08-06T09:54:37;3.25;;;2.83;;
66593;SDS011;53450;42.584;23.366;2023-08-06T09:57:03;3.05;;;2.75;;
66593;SDS011;53450;42.584;23.366;2023-08-06T09:59:30;2.95;;;2.60;;
66593;SDS011;53450;42.584;23.366;2023-08-06T10:01:58;6.85;;;2.83;;
66593;SDS011;53450;42.584;23.366;2023-08-06T10:07:02;3.65;;;3.00;;
66593;SDS011;53450;42.584;23.366;2023-08-06T10:09:33;2.92;;;2.72;;
66593;SDS011;53450;42.584;23.366;2023-08-06T10:14:29;7.07;;;3.15;;
66593;SDS011;53450;42.584;23.366;2023-08-06T10:17:23;5.25;;;3.58;;
66593;SDS011;53450;42.584;23.366;2023-08-06T10:20:14;5.70;;;4.45;;
66593;SDS011;53450;42.584;23.366;2023-08-06T10:23:05;4.40;;;4.07;;
66593;SDS011;53450;42.584;23.366;2023-08-06T10:25:58;7.65;;;4.13;;
66593;SDS011;53450;42.584;23.366;2023-08-06T10:28:33;9.13;;;4.80;;
66593;SDS011;53450;42.584;23.366;2023-08-06T10:31:03;5.10;;;4.60;;
66593;SDS011;53450;42.584;23.366;2023-08-06T10:36:08;3.95;;;2.58;;
66593;SDS011;53450;42.584;23.366;2023-08-06T10:38:35;3.08;;;2.65;;
66593;SDS011;53450;42.584;23.366;2023-08-06T10:41:04;6.18;;;3.22;;
66593;SDS011;53450;42.584;23.366;2023-08-06T10:43:34;6.72;;;3.45;;
66593;SDS011;53450;42.584;23.366;2023-08-06T10:46:29;4.22;;;3.53;;
66593;SDS011;53450;42.584;23.366;2023-08-06T10:49:20;3.30;;;3.00;;
66593;SDS011;53450;42.584;23.366;2023-08-06T10:51:46;3.58;;;3.28;;
66593;SDS011;53450;42.584;23.366;2023-08-06T10:54:11;3.50;;;3.10;;
66593;SDS011;53450;42.584;23.366;2023-08-06T10:56:39;8.57;;;3.55;;
66593;SDS011;53450;42.584;23.366;2023-08-06T10:59:07;5.35;;;3.08;;
66593;SDS011;53450;42.584;23.366;2023-08-06T11:01:35;4.97;;;3.58;;
66593;SDS011;53450;42.584;23.366;2023-08-06T11:04:03;4.00;;;3.40;;
66593;SDS011;53450;42.584;23.366;2023-08-06T11:06:30;6.22;;;3.30;;
66593;SDS011;53450;42.584;23.366;2023-08-06T11:08:55;3.78;;;3.38;;
66593;SDS011;53450;42.584;23.366;2023-08-06T11:11:48;5.53;;;3.83;;
66593;SDS011;53450;42.584;23.366;2023-08-06T11:14:39;4.97;;;3.83;;
66593;SDS011;53450;42.584;23.366;2023-08-06T11:17:05;5.85;;;3.65;;
66593;SDS011;53450;42.584;23.366;2023-08-06T11:19:31;5.75;;;3.78;;
66593;SDS011;53450;42.584;23.366;2023-08-06T11:21:56;5.88;;;3.40;;
66593;SDS011;53450;42.584;23.366;2023-08-06T11:24:23;4.20;;;3.60;;
66593;SDS011;53450;42.584;23.366;2023-08-06T11:26:49;7.75;;;3.60;;
66593;SDS011;53450;42.584;23.366;2023-08-06T11:29:15;4.95;;;3.00;;
66593;SDS011;53450;42.584;23.366;2023-08-06T11:31:41;3.95;;;3.17;;
66593;SDS011;53450;42.584;23.366;2023-08-06T11:34:07;3.42;;;2.70;;
66593;SDS011;53450;42.584;23.366;2023-08-06T11:36:33;3.28;;;2.88;;
66593;SDS011;53450;42.584;23.366;2023-08-06T11:39:00;6.53;;;2.30;;
66593;SDS011;53450;42.584;23.366;2023-08-06T11:41:29;5.47;;;3.13;;
66593;SDS011;53450;42.584;23.366;2023-08-06T11:43:55;3.97;;;3.40;;
66593;SDS011;53450;42.584;23.366;2023-08-06T11:46:21;5.82;;;3.20;;
66593;SDS011;53450;42.584;23.366;2023-08-06T11:48:54;5.65;;;3.00;;
66593;SDS011;53450;42.584;23.366;2023-08-06T11:51:30;5.05;;;3.00;;
66593;SDS011;53450;42.584;23.366;2023-08-06T11:54:04;3.83;;;2.92;;
66593;SDS011;53450;42.584;23.366;2023-08-06T11:57:12;4.38;;;2.60;;
66593;SDS011;53450;42.584;23.366;2023-08-06T11:59:39;4.20;;;3.17;;
66593;SDS011;53450;42.584;23.366;2023-08-06T12:02:07;7.82;;;3.67;;
66593;SDS011;53450;42.584;23.366;2023-08-06T12:07:28;21.00;;;12.85;;
66593;SDS011;53450;42.584;23.366;2023-08-06T12:10:00;5.63;;;3.85;;
66593;SDS011;53450;42.584;23.366;2023-08-06T12:12:30;4.57;;;2.85;;
66593;SDS011;53450;42.584;23.366;2023-08-06T12:14:58;3.95;;;2.75;;
66593;SDS011;53450;42.584;23.366;2023-08-06T12:17:24;5.95;;;3.15;;
66593;SDS011;53450;42.584;23.366;2023-08-06T12:19:55;2.97;;;2.67;;
66593;SDS011;53450;42.584;23.366;2023-08-06T12:26:20;2.97;;;2.00;;
66593;SDS011;53450;42.584;23.366;2023-08-06T12:28:46;8.57;;;2.05;;
66593;SDS011;53450;42.584;23.366;2023-08-06T12:31:12;4.85;;;2.80;;
66593;SDS011;53450;42.584;23.366;2023-08-06T12:33:37;3.30;;;2.95;;
66593;SDS011;53450;42.584;23.366;2023-08-06T12:36:03;4.63;;;2.92;;
66593;SDS011;53450;42.584;23.366;2023-08-06T12:38:42;7.65;;;2.83;;
66593;SDS011;53450;42.584;23.366;2023-08-06T12:41:09;4.18;;;2.70;;
66593;SDS011;53450;42.584;23.366;2023-08-06T12:43:37;3.90;;;3.35;;
66593;SDS011;53450;42.584;23.366;2023-08-06T12:46:03;5.03;;;3.40;;
66593;SDS011;53450;42.584;23.366;2023-08-06T12:48:32;3.88;;;3.30;;
66593;SDS011;53450;42.584;23.366;2023-08-06T12:50:57;3.50;;;3.20;;
66593;SDS011;53450;42.584;23.366;2023-08-06T12:53:26;8.80;;;3.50;;
66593;SDS011;53450;42.584;23.366;2023-08-06T12:55:52;4.85;;;3.60;;
66593;SDS011;53450;42.584;23.366;2023-08-06T12:58:20;6.72;;;3.70;;
66593;SDS011;53450;42.584;23.366;2023-08-06T13:00:46;4.97;;;3.78;;
66593;SDS011;53450;42.584;23.366;2023-08-06T13:03:12;6.85;;;4.07;;
66593;SDS011;53450;42.584;23.366;2023-08-06T13:05:45;4.53;;;4.05;;
66593;SDS011;53450;42.584;23.366;2023-08-06T13:08:14;4.53;;;3.42;;
66593;SDS011;53450;42.584;23.366;2023-08-06T13:10:39;4.93;;;3.08;;
66593;SDS011;53450;42.584;23.366;2023-08-06T13:13:05;4.90;;;4.40;;
66593;SDS011;53450;42.584;23.366;2023-08-06T13:15:30;7.05;;;3.60;;
66593;SDS011;53450;42.584;23.366;2023-08-06T13:17:56;4.95;;;3.50;;
66593;SDS011;53450;42.584;23.366;2023-08-06T13:20:22;6.13;;;3.08;;
66593;SDS011;53450;42.584;23.366;2023-08-06T13:22:48;4.70;;;3.30;;
66593;SDS011;53450;42.584;23.366;2023-08-06T13:25:15;5.55;;;3.30;;
66593;SDS011;53450;42.584;23.366;2023-08-06T13:27:42;6.00;;;3.03;;
66593;SDS011;53450;42.584;23.366;2023-08-06T13:30:09;3.67;;;3.38;;
66593;SDS011;53450;42.584;23.366;2023-08-06T13:32:35;3.20;;;2.88;;
66593;SDS011;53450;42.584;23.366;2023-08-06T13:35:03;3.42;;;2.55;;
66593;SDS011;53450;42.584;23.366;2023-08-06T13:37:29;4.03;;;3.08;;
66593;SDS011;53450;42.584;23.366;2023-08-06T13:39:55;4.05;;;2.83;;
66593;SDS011;53450;42.584;23.366;2023-08-06T13:42:21;3.40;;;2.80;;
66593;SDS011;53450;42.584;23.366;2023-08-06T13:44:47;3.30;;;3.00;;
66593;SDS011;53450;42.584;23.366;2023-08-06T13:47:13;4.20;;;3.10;;
66593;SDS011;53450;42.584;23.366;2023-08-06T13:49:38;5.07;;;3.45;;
66593;SDS011;53450;42.584;23.366;2023-08-06T13:52:04;4.18;;;3.47;;
66593;SDS011;53450;42.584;23.366;2023-08-06T13:54:30;6.03;;;3.70;;
66593;SDS011;53450;42.584;23.366;2023-08-06T13:56:56;4.53;;;4.00;;
66593;SDS011;53450;42.584;23.366;2023-08-06T13:59:21;6.20;;;3.95;;
66593;SDS011;53450;42.584;23.366;2023-08-06T14:01:49;5.68;;;3.70;;
66593;SDS011;53450;42.584;23.366;2023-08-06T14:04:15;4.15;;;3.47;;
66593;SDS011;53450;42.584;23.366;2023-08-06T14:06:41;6.15;;;3.70;;
66593;SDS011;53450;42.584;23.366;2023-08-06T14:09:07;6.47;;;3.13;;
66593;SDS011;53450;42.584;23.366;2023-08-06T14:11:39;3.92;;;3.05;;
66593;SDS011;53450;42.584;23.366;2023-08-06T14:14:04;5.10;;;3.08;;
66593;SDS011;53450;42.584;23.366;2023-08-06T14:16:30;5.22;;;2.90;;
66593;SDS011;53450;42.584;23.366;2023-08-06T14:18:56;3.30;;;3.00;;
66593;SDS011;53450;42.584;23.366;2023-08-06T14:21:21;3.88;;;3.15;;
66593;SDS011;53450;42.584;23.366;2023-08-06T14:23:47;7.95;;;3.50;;
66593;SDS011;53450;42.584;23.366;2023-08-06T14:26:15;3.75;;;3.40;;
66593;SDS011;53450;42.584;23.366;2023-08-06T14:28:42;5.28;;;3.60;;
66593;SDS011;53450;42.584;23.366;2023-08-06T14:31:11;5.50;;;4.15;;
66593;SDS011;53450;42.584;23.366;2023-08-06T14:33:37;3.63;;;3.08;;
66593;SDS011;53450;42.584;23.366;2023-08-06T14:36:12;3.65;;;3.35;;
66593;SDS011;53450;42.584;23.366;2023-08-06T14:38:38;8.75;;;3.35;;
66593;SDS011;53450;42.584;23.366;2023-08-06T14:41:04;6.75;;;3.50;;
66593;SDS011;53450;42.584;23.366;2023-08-06T14:43:32;4.07;;;3.38;;
66593;SDS011;53450;42.584;23.366;2023-08-06T14:45:58;4.00;;;3.13;;
66593;SDS011;53450;42.584;23.366;2023-08-06T14:48:24;6.57;;;3.22;;
66593;SDS011;53450;42.584;23.366;2023-08-06T14:50:49;3.97;;;3.45;;
66593;SDS011;53450;42.584;23.366;2023-08-06T14:53:15;5.00;;;3.40;;
66593;SDS011;53450;42.584;23.366;2023-08-06T14:55:41;4.97;;;3.10;;
66593;SDS011;53450;42.584;23.366;2023-08-06T14:58:07;11.15;;;3.15;;
66593;SDS011;53450;42.584;23.366;2023-08-06T15:00:32;4.47;;;3.30;;